createdAt,value
2022-08-03T00:01:28.206Z,19.60
2022-08-03T00:03:55.191Z,19.50
2022-08-03T00:06:22.120Z,19.50
2022-08-03T00:08:49.095Z,19.50
2022-08-03T00:11:16.047Z,19.40
2022-08-03T00:13:43.007Z,19.50
2022-08-03T00:16:10.805Z,19.40
2022-08-03T00:18:38.249Z,19.40
2022-08-03T00:21:05.735Z,19.30
2022-08-03T00:23:51.323Z,19.30
2022-08-03T00:26:20.844Z,19.30
2022-08-03T00:28:48.319Z,19.30
2022-08-03T00:31:15.495Z,19.20
2022-08-03T00:33:59.585Z,19.10
2022-08-03T00:36:32.328Z,19.10
2022-08-03T00:38:59.198Z,19.10
2022-08-03T00:41:26.192Z,19.00
2022-08-03T00:43:53.110Z,18.90
2022-08-03T00:46:22.473Z,18.90
2022-08-03T00:48:50.735Z,18.80
2022-08-03T00:51:18.901Z,18.80
2022-08-03T00:53:46.100Z,18.70
2022-08-03T00:56:17.034Z,18.60
2022-08-03T00:58:45.018Z,18.60
2022-08-03T01:01:12.755Z,18.50
2022-08-03T01:03:39.861Z,18.40
2022-08-03T01:06:23.882Z,18.40
2022-08-03T01:09:23.117Z,18.30
2022-08-03T01:12:07.967Z,18.20
2022-08-03T01:14:41.651Z,18.00
2022-08-03T01:17:25.712Z,17.80
2022-08-03T01:20:14.427Z,17.70
2022-08-03T01:23:11.073Z,17.60
2022-08-03T01:26:03.429Z,17.60
2022-08-03T01:29:03.781Z,17.60
2022-08-03T01:33:00.339Z,17.60
2022-08-03T01:35:12.210Z,17.50
2022-08-03T01:37:43.967Z,17.50
2022-08-03T01:40:14.395Z,17.50
2022-08-03T01:42:42.839Z,17.50
2022-08-03T01:45:12.676Z,17.50
2022-08-03T01:47:41.039Z,17.40
2022-08-03T01:50:10.955Z,17.40
2022-08-03T01:52:43.624Z,17.40
2022-08-03T01:55:12.001Z,17.40
2022-08-03T01:58:06.295Z,17.40
2022-08-03T02:00:28.039Z,17.40
2022-08-03T02:02:56.056Z,17.40
2022-08-03T02:05:24.302Z,17.40
2022-08-03T02:07:52.783Z,17.40
2022-08-03T02:10:35.343Z,17.40
2022-08-03T02:13:05.202Z,17.40
2022-08-03T02:15:33.896Z,17.40
2022-08-03T02:18:02.201Z,17.40
2022-08-03T02:20:33.103Z,17.40
2022-08-03T02:23:00.337Z,17.30
2022-08-03T02:25:28.706Z,17.40
2022-08-03T02:28:00.363Z,17.40
2022-08-03T02:30:38.567Z,17.30
2022-08-03T02:33:10.776Z,17.30
2022-08-03T02:35:40.060Z,17.30
2022-08-03T02:38:10.523Z,17.30
2022-08-03T02:40:39.638Z,17.40
2022-08-03T02:43:11.822Z,17.40
2022-08-03T02:45:46.769Z,17.40
2022-08-03T02:48:18.640Z,17.40
2022-08-03T02:50:47.441Z,17.30
2022-08-03T02:53:16.041Z,17.30
2022-08-03T02:55:45.813Z,17.20
2022-08-03T02:58:14.614Z,17.20
2022-08-03T03:00:44.849Z,17.20
2022-08-03T03:03:14.198Z,17.20
2022-08-03T03:05:56.336Z,17.20
2022-08-03T03:08:28.266Z,17.20
2022-08-03T03:11:01.302Z,17.20
2022-08-03T03:13:32.345Z,17.20
2022-08-03T03:16:02.531Z,17.20
2022-08-03T03:18:34.115Z,17.10
2022-08-03T03:21:02.945Z,17.10
2022-08-03T03:23:30.738Z,17.00
2022-08-03T03:25:59.043Z,17.10
2022-08-03T03:28:26.528Z,17.10
2022-08-03T03:30:53.711Z,17.10
2022-08-03T03:33:22.365Z,17.10
2022-08-03T03:35:49.823Z,17.10
2022-08-03T03:38:16.887Z,17.00
2022-08-03T03:40:44.340Z,17.00
2022-08-03T03:43:12.999Z,17.00
2022-08-03T03:45:43.696Z,17.00
2022-08-03T03:48:11.181Z,16.90
2022-08-03T03:50:41.026Z,16.80
2022-08-03T03:53:12.226Z,16.70
2022-08-03T03:55:57.782Z,16.70
2022-08-03T03:58:27.262Z,16.70
2022-08-03T04:00:54.375Z,16.60
2022-08-03T04:03:21.434Z,16.60
2022-08-03T04:06:07.254Z,16.60
2022-08-03T04:08:52.632Z,16.60
2022-08-03T04:11:40.599Z,16.60
2022-08-03T04:14:14.756Z,16.60
2022-08-03T04:16:47.232Z,16.60
2022-08-03T04:19:23.055Z,16.60
2022-08-03T04:21:56.894Z,16.60
2022-08-03T04:24:28.627Z,16.60
2022-08-03T04:26:57.635Z,16.60
2022-08-03T04:29:26.671Z,16.50
2022-08-03T04:31:55.757Z,16.50
2022-08-03T04:34:22.900Z,16.50
2022-08-03T04:36:52.930Z,16.50
2022-08-03T04:39:29.822Z,16.50
2022-08-03T04:42:06.722Z,16.50
2022-08-03T04:44:41.844Z,16.50
2022-08-03T04:47:09.086Z,16.50
2022-08-03T04:49:40.230Z,16.60
2022-08-03T04:52:10.958Z,16.60
2022-08-03T04:54:43.035Z,16.60
2022-08-03T04:57:22.219Z,16.60
2022-08-03T05:00:01.354Z,16.60
2022-08-03T05:02:30.157Z,16.70
2022-08-03T05:04:57.357Z,16.70
2022-08-03T05:07:24.976Z,16.80
2022-08-03T05:09:57.727Z,16.90
2022-08-03T05:12:32.782Z,16.90
2022-08-03T05:15:00.768Z,17.00
2022-08-03T05:17:28.441Z,17.00
2022-08-03T05:19:55.927Z,17.00
2022-08-03T05:22:23.549Z,17.00
2022-08-03T05:24:50.441Z,17.10
2022-08-03T05:27:20.166Z,17.10
2022-08-03T05:29:49.091Z,17.20
2022-08-03T05:32:16.996Z,17.20
2022-08-03T05:34:44.526Z,17.30
2022-08-03T05:37:11.688Z,17.40
2022-08-03T05:39:38.577Z,17.60
2022-08-03T05:42:05.710Z,17.60
2022-08-03T05:44:32.903Z,17.80
2022-08-03T05:47:00.549Z,17.90
2022-08-03T05:49:27.754Z,18.00
2022-08-03T05:52:00.135Z,18.10
2022-08-03T05:54:57.373Z,18.20
2022-08-03T05:57:25.345Z,18.30
2022-08-03T05:59:54.607Z,18.50
2022-08-03T06:02:27.058Z,18.60
2022-08-03T06:04:54.284Z,18.90
2022-08-03T06:07:21.311Z,19.30
2022-08-03T06:10:35.998Z,19.80
2022-08-03T06:12:36.351Z,20.20
2022-08-03T06:15:04.800Z,20.60
2022-08-03T06:17:37.329Z,21.00
2022-08-03T06:20:06.170Z,21.40
2022-08-03T06:22:33.688Z,21.70
2022-08-03T06:25:04.181Z,22.10
2022-08-03T06:27:37.144Z,22.40
2022-08-03T06:30:05.339Z,22.80
2022-08-03T06:32:32.346Z,23.20
2022-08-03T06:34:59.573Z,23.60
2022-08-03T06:37:27.305Z,24.00
2022-08-03T06:39:54.444Z,24.40
2022-08-03T06:42:22.645Z,24.70
2022-08-03T06:44:50.054Z,25.20
2022-08-03T06:47:17.349Z,25.60
2022-08-03T06:49:44.465Z,25.90
2022-08-03T06:52:37.926Z,26.10
2022-08-03T06:55:06.943Z,26.30
2022-08-03T06:57:33.905Z,26.60
2022-08-03T07:00:10.821Z,26.90
2022-08-03T07:02:40.098Z,27.10
2022-08-03T07:05:08.479Z,27.30
2022-08-03T07:07:36.020Z,27.40
2022-08-03T07:10:03.370Z,27.60
2022-08-03T07:12:31.327Z,27.90
2022-08-03T07:15:02.295Z,28.20
2022-08-03T07:17:31.875Z,28.40
2022-08-03T07:20:05.052Z,28.40
2022-08-03T07:22:32.244Z,28.40
2022-08-03T07:24:59.323Z,28.40
2022-08-03T07:27:27.263Z,28.40
2022-08-03T07:29:55.390Z,28.40
2022-08-03T07:32:22.988Z,27.30
2022-08-03T07:34:49.924Z,28.70
2022-08-03T07:37:17.028Z,28.80
2022-08-03T07:39:43.919Z,28.80
2022-08-03T07:42:11.187Z,28.90
2022-08-03T07:44:39.343Z,28.90
2022-08-03T07:47:06.419Z,28.80
2022-08-03T07:49:41.521Z,28.60
2022-08-03T07:52:28.559Z,28.70
2022-08-03T07:54:55.831Z,28.60
2022-08-03T07:57:22.785Z,28.60
2022-08-03T08:00:01.496Z,28.70
2022-08-03T08:02:29.482Z,28.50
2022-08-03T08:04:56.385Z,28.60
2022-08-03T08:07:23.694Z,28.60
2022-08-03T08:09:50.564Z,28.70
2022-08-03T08:12:18.017Z,28.80
2022-08-03T08:14:46.747Z,28.80
2022-08-03T08:17:14.339Z,28.80
2022-08-03T08:19:45.986Z,28.80
2022-08-03T08:22:29.709Z,28.80
2022-08-03T08:25:01.357Z,28.80
2022-08-03T08:28:30.573Z,28.90
2022-08-03T08:30:19.439Z,28.90
2022-08-03T08:32:46.577Z,28.90
2022-08-03T08:35:13.648Z,28.90
2022-08-03T08:37:41.336Z,28.80
2022-08-03T08:40:09.400Z,28.80
2022-08-03T08:42:47.941Z,28.70
2022-08-03T08:45:24.960Z,28.90
2022-08-03T08:47:55.741Z,29.00
2022-08-03T08:50:27.856Z,29.10
2022-08-03T08:52:56.432Z,29.10
2022-08-03T08:55:24.516Z,29.20
2022-08-03T08:57:59.340Z,29.20
2022-08-03T09:00:26.346Z,29.30
2022-08-03T09:02:53.457Z,29.30
2022-08-03T09:05:31.643Z,29.40
2022-08-03T09:08:08.560Z,29.40
2022-08-03T09:10:35.697Z,29.40
2022-08-03T09:13:02.638Z,29.30
2022-08-03T09:15:32.463Z,29.40
2022-08-03T09:18:04.415Z,29.50
2022-08-03T09:20:33.655Z,29.50
2022-08-03T09:23:19.155Z,29.60
2022-08-03T09:26:00.167Z,29.60
2022-08-03T09:29:00.819Z,29.50
2022-08-03T09:31:43.036Z,29.50
2022-08-03T09:34:18.299Z,29.50
2022-08-03T09:36:47.901Z,29.60
2022-08-03T09:39:40.190Z,29.50
2022-08-03T09:42:14.433Z,29.50
2022-08-03T09:44:47.766Z,29.50
2022-08-03T09:47:45.061Z,29.40
2022-08-03T09:50:13.000Z,29.50
2022-08-03T09:52:52.444Z,29.60
2022-08-03T09:56:33.399Z,29.70
2022-08-03T09:58:14.358Z,29.80
2022-08-03T10:00:55.125Z,29.90
2022-08-03T10:03:24.322Z,30.00
2022-08-03T10:05:54.821Z,29.90
2022-08-03T10:08:25.266Z,29.80
2022-08-03T10:10:57.992Z,29.70
2022-08-03T10:13:25.572Z,29.80
2022-08-03T10:16:22.184Z,29.90
2022-08-03T10:18:39.573Z,30.10
2022-08-03T10:21:10.575Z,30.20
2022-08-03T10:23:40.242Z,30.20
2022-08-03T10:26:08.475Z,30.30
2022-08-03T10:28:44.696Z,30.30
2022-08-03T10:31:14.022Z,30.40
2022-08-03T10:33:51.440Z,30.30
2022-08-03T10:36:23.841Z,30.40
2022-08-03T10:38:53.687Z,30.40
2022-08-03T10:41:22.622Z,30.40
2022-08-03T10:44:23.130Z,30.50
2022-08-03T10:46:52.777Z,30.60
2022-08-03T10:49:34.873Z,30.70
2022-08-03T10:52:12.779Z,30.70
2022-08-03T10:55:07.510Z,30.70
2022-08-03T10:57:48.894Z,30.80
2022-08-03T11:00:21.897Z,30.90
2022-08-03T11:03:11.093Z,30.90
2022-08-03T11:05:43.651Z,30.90
2022-08-03T11:08:20.941Z,30.90
2022-08-03T11:10:48.739Z,30.90
2022-08-03T11:13:18.034Z,31.10
2022-08-03T11:15:47.014Z,31.10
2022-08-03T11:18:14.908Z,31.20
2022-08-03T11:20:53.113Z,31.40
2022-08-03T11:24:05.224Z,31.40
2022-08-03T11:26:28.217Z,31.40
2022-08-03T11:29:33.099Z,31.40
2022-08-03T11:32:00.141Z,31.30
2022-08-03T11:34:27.249Z,31.10
2022-08-03T11:37:25.395Z,31.20
2022-08-03T11:39:57.122Z,31.20
2022-08-03T11:42:24.463Z,31.40
2022-08-03T11:44:59.416Z,31.40
2022-08-03T11:47:30.008Z,31.70
2022-08-03T11:50:02.242Z,31.80
2022-08-03T11:52:36.082Z,31.90
2022-08-03T11:55:08.471Z,31.90
2022-08-03T11:58:58.106Z,32.00
2022-08-03T12:00:26.777Z,32.10
2022-08-03T12:03:00.632Z,32.10
2022-08-03T12:05:41.221Z,32.10
2022-08-03T12:08:10.222Z,31.90
2022-08-03T12:10:40.385Z,31.90
2022-08-03T12:14:27.344Z,32.00
2022-08-03T12:16:01.515Z,32.20
2022-08-03T12:18:28.520Z,32.30
2022-08-03T12:21:05.214Z,32.30
2022-08-03T12:23:36.065Z,32.30
2022-08-03T12:26:09.945Z,32.40
2022-08-03T12:28:38.558Z,32.50
2022-08-03T12:31:07.532Z,32.60
2022-08-03T12:34:02.983Z,32.70
2022-08-03T12:36:36.151Z,32.60
2022-08-03T12:39:08.867Z,32.70
2022-08-03T12:41:38.058Z,32.70
2022-08-03T12:44:06.989Z,32.70
2022-08-03T12:46:34.952Z,32.90
2022-08-03T12:49:19.117Z,32.90
2022-08-03T12:51:46.112Z,33.00
2022-08-03T12:54:18.027Z,33.10
2022-08-03T12:57:01.355Z,33.20
2022-08-03T12:59:34.822Z,33.20
2022-08-03T13:02:09.484Z,33.20
2022-08-03T13:04:37.440Z,33.20
2022-08-03T13:07:06.713Z,33.30
2022-08-03T13:09:48.731Z,33.40
2022-08-03T13:12:27.128Z,33.50
2022-08-03T13:14:59.674Z,33.40
2022-08-03T13:17:27.886Z,33.30
2022-08-03T13:19:54.961Z,33.30
2022-08-03T13:22:27.395Z,33.40
2022-08-03T13:24:58.451Z,33.50
2022-08-03T13:28:03.447Z,33.60
2022-08-03T13:30:13.622Z,33.70
2022-08-03T13:32:45.392Z,33.80
2022-08-03T13:35:12.694Z,33.90
2022-08-03T13:37:43.638Z,34.10
2022-08-03T13:40:15.821Z,34.20
2022-08-03T13:42:42.806Z,34.30
2022-08-03T13:45:11.285Z,34.30
2022-08-03T13:47:38.490Z,33.90
2022-08-03T13:50:05.986Z,33.80
2022-08-03T13:52:35.050Z,33.70
2022-08-03T13:55:04.456Z,33.70
2022-08-03T13:58:04.487Z,33.80
2022-08-03T14:00:27.345Z,33.80
2022-08-03T14:03:13.664Z,33.80
2022-08-03T14:05:42.470Z,34.00
2022-08-03T14:08:10.246Z,34.20
2022-08-03T14:10:40.573Z,34.20
2022-08-03T14:13:09.081Z,33.10
2022-08-03T14:15:37.879Z,33.00
2022-08-03T14:18:15.531Z,33.20
2022-08-03T14:20:49.125Z,33.50
2022-08-03T14:23:21.425Z,33.70
2022-08-03T14:25:54.950Z,34.00
2022-08-03T14:28:23.482Z,34.40
2022-08-03T14:30:52.144Z,34.50
2022-08-03T14:33:19.590Z,34.70
2022-08-03T14:35:46.930Z,34.80
2022-08-03T14:38:14.028Z,34.90
2022-08-03T14:40:41.516Z,35.00
2022-08-03T14:43:08.551Z,35.00
2022-08-03T14:45:35.666Z,35.10
2022-08-03T14:50:10.361Z,35.20
2022-08-03T14:50:52.785Z,35.20
2022-08-03T14:53:20.467Z,35.20
2022-08-03T14:55:52.855Z,35.40
2022-08-03T14:58:21.963Z,35.50
2022-08-03T15:00:50.697Z,35.60
2022-08-03T15:03:21.463Z,35.60
2022-08-03T15:05:48.968Z,35.70
2022-08-03T15:08:16.337Z,35.80
2022-08-03T15:10:44.029Z,35.70
2022-08-03T15:13:13.016Z,35.60
2022-08-03T15:15:40.290Z,35.60
2022-08-03T15:18:07.711Z,35.70
2022-08-03T15:20:50.167Z,35.70
2022-08-03T15:23:18.340Z,35.90
2022-08-03T15:26:03.612Z,35.80
2022-08-03T15:28:33.433Z,35.80
2022-08-03T15:31:00.955Z,35.80
2022-08-03T15:33:29.262Z,35.70
2022-08-03T15:35:56.670Z,35.70
2022-08-03T15:38:25.912Z,35.70
2022-08-03T15:40:56.554Z,35.70
2022-08-03T15:43:24.071Z,35.70
2022-08-03T15:46:19.139Z,35.50
2022-08-03T15:48:39.467Z,35.20
2022-08-03T15:51:06.962Z,34.90
2022-08-03T15:53:34.480Z,34.50
2022-08-03T15:56:05.234Z,34.10
2022-08-03T15:59:03.690Z,33.90
2022-08-03T16:01:26.044Z,33.90
2022-08-03T16:03:53.060Z,34.00
2022-08-03T16:06:34.890Z,34.20
2022-08-03T16:09:03.884Z,34.30
2022-08-03T16:11:30.783Z,34.40
2022-08-03T16:14:14.090Z,34.50
2022-08-03T16:16:44.778Z,34.70
2022-08-03T16:19:13.605Z,34.70
2022-08-03T16:21:48.791Z,34.70
2022-08-03T16:24:17.535Z,34.90
2022-08-03T16:29:23.487Z,35.20
2022-08-03T16:31:51.641Z,35.30
2022-08-03T16:34:19.034Z,35.30
2022-08-03T16:36:46.107Z,35.30
2022-08-03T16:39:13.093Z,35.30
2022-08-03T16:41:54.292Z,35.40
2022-08-03T16:44:30.891Z,35.30
2022-08-03T16:46:59.303Z,35.10
2022-08-03T16:49:55.582Z,34.90
2022-08-03T16:52:13.565Z,34.80
2022-08-03T16:54:44.446Z,34.70
2022-08-03T16:57:56.013Z,34.50
2022-08-03T17:00:09.544Z,34.40
2022-08-03T17:02:37.312Z,34.40
2022-08-03T17:05:04.931Z,34.30
2022-08-03T17:07:32.139Z,34.00
2022-08-03T17:10:01.422Z,34.00
2022-08-03T17:12:28.811Z,33.80
2022-08-03T17:14:57.134Z,33.80
2022-08-03T17:17:37.622Z,33.80
2022-08-03T17:20:15.370Z,33.90
2022-08-03T17:23:03.206Z,33.90
2022-08-03T17:26:03.929Z,34.00
2022-08-03T17:28:49.513Z,34.10
2022-08-03T17:31:23.078Z,34.20
2022-08-03T17:33:58.728Z,34.20
2022-08-03T17:37:00.906Z,34.10
2022-08-03T17:39:30.763Z,34.20
2022-08-03T17:42:31.631Z,34.20
2022-08-03T17:44:56.352Z,34.00
2022-08-03T17:47:23.756Z,33.90
2022-08-03T17:49:56.963Z,33.80
2022-08-03T17:52:35.281Z,33.50
2022-08-03T17:55:55.893Z,33.60
2022-08-03T17:58:03.048Z,33.50
2022-08-03T18:00:51.551Z,33.40
2022-08-03T18:03:24.817Z,33.40
2022-08-03T18:06:11.975Z,33.50
2022-08-03T18:08:51.840Z,33.50
2022-08-03T18:11:35.652Z,33.50
2022-08-03T18:14:40.919Z,33.50
2022-08-03T18:17:55.965Z,33.40
2022-08-03T18:20:33.134Z,33.20
2022-08-03T18:23:06.450Z,33.10
2022-08-03T18:25:42.309Z,33.00
2022-08-03T18:28:15.983Z,32.90
2022-08-03T18:30:54.513Z,32.80
2022-08-03T18:34:16.394Z,32.70
2022-08-03T18:36:17.840Z,32.50
2022-08-03T18:38:48.055Z,32.40
2022-08-03T18:41:21.959Z,32.30
2022-08-03T18:44:06.595Z,32.10
2022-08-03T18:46:53.076Z,32.00
2022-08-03T18:49:32.113Z,31.80
2022-08-03T18:52:13.610Z,31.50
2022-08-03T18:55:02.791Z,31.30
2022-08-03T18:57:44.557Z,31.20
2022-08-03T19:00:24.294Z,31.10
2022-08-03T19:03:10.108Z,30.90
2022-08-03T19:06:13.334Z,30.80
2022-08-03T19:08:49.686Z,30.60
2022-08-03T19:12:14.534Z,30.50
2022-08-03T19:14:44.172Z,30.30
2022-08-03T19:17:12.030Z,30.00
2022-08-03T19:19:45.604Z,29.80
2022-08-03T19:22:16.235Z,29.70
2022-08-03T19:24:45.778Z,29.50
2022-08-03T19:27:13.354Z,29.30
2022-08-03T19:29:59.079Z,29.80
2022-08-03T19:32:29.197Z,28.80
2022-08-03T19:34:57.406Z,28.90
2022-08-03T19:37:38.344Z,28.70
2022-08-03T19:40:14.864Z,28.60
2022-08-03T19:42:49.751Z,28.50
2022-08-03T19:45:52.735Z,28.40
2022-08-03T19:48:16.160Z,28.40
2022-08-03T19:50:44.888Z,28.20
2022-08-03T19:53:13.090Z,28.10
2022-08-03T19:55:47.494Z,28.00
2022-08-03T19:58:17.522Z,27.90
2022-08-03T20:00:48.777Z,27.80
2022-08-03T20:03:22.003Z,27.70
2022-08-03T20:05:52.364Z,27.70
2022-08-03T20:08:22.667Z,27.60
2022-08-03T20:10:51.246Z,27.60
2022-08-03T20:13:19.394Z,27.50
2022-08-03T20:15:46.744Z,27.50
2022-08-03T20:18:16.967Z,27.40
2022-08-03T20:20:48.512Z,27.30
2022-08-03T20:23:19.681Z,27.30
2022-08-03T20:25:58.554Z,27.20
2022-08-03T20:28:26.999Z,27.10
2022-08-03T20:30:54.130Z,27.00
2022-08-03T20:33:34.593Z,26.90
2022-08-03T20:36:08.509Z,26.80
2022-08-03T20:38:43.711Z,26.70
2022-08-03T20:41:14.180Z,26.70
2022-08-03T20:43:42.116Z,26.50
2022-08-03T20:46:29.437Z,26.40
2022-08-03T20:48:58.820Z,26.30
2022-08-03T20:51:49.665Z,26.20
2022-08-03T20:54:23.043Z,26.10
2022-08-03T20:56:58.198Z,26.00
2022-08-03T20:59:50.241Z,25.90
2022-08-03T21:02:28.946Z,25.70
2022-08-03T21:05:03.794Z,25.70
2022-08-03T21:08:05.391Z,25.60
2022-08-03T21:10:38.229Z,25.50
2022-08-03T21:13:16.885Z,25.40
2022-08-03T21:16:12.811Z,25.40
2022-08-03T21:18:42.396Z,25.30
2022-08-03T21:21:13.997Z,25.20
2022-08-03T21:23:49.129Z,25.10
2022-08-03T21:26:18.974Z,25.00
2022-08-03T21:28:51.039Z,24.90
2022-08-03T21:31:25.057Z,24.90
2022-08-03T21:33:58.498Z,24.70
2022-08-03T21:36:33.386Z,24.70
2022-08-03T21:39:01.434Z,24.60
2022-08-03T21:41:31.581Z,24.60
2022-08-03T21:44:00.528Z,24.50
2022-08-03T21:46:33.425Z,24.50
2022-08-03T21:50:04.749Z,24.50
2022-08-03T21:51:52.273Z,24.40
2022-08-03T21:54:21.741Z,24.30
2022-08-03T21:56:54.335Z,24.20
2022-08-03T21:59:23.649Z,24.20
2022-08-03T22:01:55.384Z,24.10
2022-08-03T22:04:42.714Z,24.10
2022-08-03T22:07:13.834Z,24.00
2022-08-03T22:09:51.622Z,24.00
2022-08-03T22:12:23.904Z,24.00
2022-08-03T22:15:00.269Z,24.00
2022-08-03T22:17:53.683Z,24.00
2022-08-03T22:20:16.223Z,23.90
2022-08-03T22:22:55.489Z,23.80
2022-08-03T22:25:29.380Z,23.70
2022-08-03T22:27:57.893Z,23.60
2022-08-03T22:30:24.899Z,23.60
2022-08-03T22:32:54.456Z,23.50
2022-08-03T22:35:23.798Z,23.50
2022-08-03T22:37:53.930Z,23.40
2022-08-03T22:40:21.626Z,23.40
2022-08-03T22:42:51.946Z,23.30
2022-08-03T22:46:07.617Z,23.30
2022-08-03T22:48:08.245Z,23.30
2022-08-03T22:50:35.761Z,23.30
2022-08-03T22:53:02.776Z,23.30
2022-08-03T22:55:29.792Z,23.30
2022-08-03T22:57:56.682Z,23.20
2022-08-03T23:00:24.236Z,23.20
2022-08-03T23:02:53.775Z,23.20
2022-08-03T23:06:01.225Z,21.30
2022-08-03T23:08:15.375Z,23.10
2022-08-03T23:10:47.235Z,23.10
2022-08-03T23:13:18.232Z,23.00
2022-08-03T23:15:55.135Z,23.00
2022-08-03T23:18:23.493Z,23.00
2022-08-03T23:20:52.765Z,23.00
2022-08-03T23:23:20.737Z,23.00
2022-08-03T23:25:50.731Z,22.90
2022-08-03T23:28:18.400Z,22.80
2022-08-03T23:30:46.868Z,22.80
2022-08-03T23:33:16.851Z,22.70
2022-08-03T23:36:28.090Z,22.70
2022-08-03T23:38:48.402Z,22.60
2022-08-03T23:41:17.237Z,22.60
2022-08-03T23:43:51.881Z,22.60
2022-08-03T23:46:22.499Z,22.50
2022-08-03T23:48:50.302Z,22.50
2022-08-03T23:51:29.268Z,22.40
2022-08-03T23:54:06.285Z,22.40
2022-08-03T23:56:48.647Z,22.40
2022-08-03T23:59:30.723Z,22.30
